createdAt,value
2019-05-10T00:04:42.296Z,1.20
2019-05-10T00:11:49.304Z,1.33
2019-05-10T00:18:33.887Z,1.40
2019-05-10T00:25:19.547Z,1.20
2019-05-10T00:32:04.634Z,1.30
2019-05-10T00:38:49.656Z,1.20
2019-05-10T00:45:34.643Z,1.30
2019-05-10T00:52:19.506Z,1.50
2019-05-10T00:59:04.529Z,1.50
2019-05-10T01:05:49.523Z,1.60
2019-05-10T01:12:34.376Z,1.40
2019-05-10T01:19:19.478Z,1.47
2019-05-10T01:26:04.534Z,1.40
2019-05-10T01:32:50.639Z,1.67
2019-05-10T01:39:35.570Z,1.73
2019-05-10T01:46:20.432Z,1.50
2019-05-10T01:53:05.378Z,1.60
2019-05-10T01:59:51.099Z,1.53
2019-05-10T02:06:36.024Z,1.43
2019-05-10T02:13:20.947Z,1.40
2019-05-10T02:20:06.536Z,1.50
2019-05-10T02:26:51.394Z,1.60
2019-05-10T02:33:36.259Z,1.60
2019-05-10T02:40:21.247Z,1.90
2019-05-10T02:47:06.161Z,1.90
2019-05-10T02:53:51.253Z,1.73
2019-05-10T03:00:39.259Z,2.20
2019-05-10T03:07:44.392Z,2.00
2019-05-10T03:14:32.380Z,1.70
2019-05-10T03:21:18.571Z,1.83
2019-05-10T03:28:03.667Z,2.10
2019-05-10T03:34:48.650Z,2.00
2019-05-10T03:41:33.594Z,1.87
2019-05-10T03:48:18.617Z,2.20
2019-05-10T03:55:04.487Z,2.30
2019-05-10T04:01:49.407Z,2.30
2019-05-10T04:08:34.283Z,2.03
2019-05-10T04:15:19.691Z,2.40
2019-05-10T04:22:04.711Z,2.20
2019-05-10T04:28:49.916Z,2.50
2019-05-10T04:35:34.824Z,2.23
2019-05-10T04:42:19.825Z,2.53
2019-05-10T04:49:04.751Z,2.27
2019-05-10T04:55:51.394Z,2.40
2019-05-10T05:02:36.467Z,3.80
2019-05-10T05:09:21.588Z,2.63
2019-05-10T05:16:06.519Z,2.83
2019-05-10T05:22:51.422Z,2.70
2019-05-10T05:29:36.393Z,2.43
2019-05-10T05:36:21.675Z,2.17
2019-05-10T05:43:08.105Z,3.10
2019-05-10T05:49:53.191Z,1.80
2019-05-10T05:56:38.177Z,1.60
2019-05-10T06:03:29.550Z,1.77
2019-05-10T06:10:17.298Z,2.72
2019-05-10T06:16:58.290Z,1.87
2019-05-10T06:23:43.453Z,1.90
2019-05-10T06:30:28.469Z,1.62
2019-05-10T06:37:13.988Z,1.87
2019-05-10T06:43:59.495Z,1.20
2019-05-10T06:50:47.713Z,2.15
2019-05-10T06:57:33.963Z,1.42
2019-05-10T07:04:18.832Z,1.77
2019-05-10T07:11:03.836Z,1.80
2019-05-10T07:17:48.847Z,1.50
2019-05-10T07:24:33.912Z,1.65
2019-05-10T07:31:23.342Z,1.60
2019-05-10T07:38:05.552Z,1.80
2019-05-10T07:44:50.478Z,1.40
2019-05-10T07:51:35.375Z,2.30
2019-05-10T07:58:20.297Z,1.65
2019-05-10T08:05:10.825Z,1.77
2019-05-10T08:11:59.294Z,1.63
2019-05-10T08:18:42.401Z,1.50
2019-05-10T08:25:29.030Z,1.90
2019-05-10T08:32:13.564Z,1.60
2019-05-10T08:39:07.075Z,1.70
2019-05-10T08:45:49.420Z,1.47
2019-05-10T08:52:33.972Z,1.60
2019-05-10T08:59:23.739Z,1.67
2019-05-10T09:06:11.984Z,1.50
2019-05-10T09:12:57.903Z,1.50
2019-05-10T09:19:43.417Z,1.10
2019-05-10T09:26:26.044Z,1.67
2019-05-10T09:33:14.333Z,2.05
2019-05-10T09:40:05.839Z,1.65
2019-05-10T09:46:44.384Z,1.62
2019-05-10T09:53:30.409Z,1.40
2019-05-10T10:00:17.489Z,1.30
2019-05-10T10:07:02.824Z,1.40
2019-05-10T10:13:50.226Z,1.47
2019-05-10T10:20:40.650Z,1.40
2019-05-10T10:27:28.041Z,1.47
2019-05-10T10:34:09.167Z,1.70
2019-05-10T10:40:54.052Z,1.27
2019-05-10T10:47:39.242Z,1.70
2019-05-10T10:54:28.616Z,2.00
2019-05-10T11:01:21.288Z,1.70
2019-05-10T11:07:57.543Z,1.52
2019-05-10T11:14:45.293Z,1.75
2019-05-10T11:21:31.255Z,1.72
2019-05-10T11:28:16.495Z,2.12
2019-05-10T11:35:05.102Z,1.47
2019-05-10T11:41:52.973Z,1.30
2019-05-10T11:48:37.115Z,1.40
2019-05-10T11:55:24.579Z,1.10
2019-05-10T12:02:10.660Z,1.82
2019-05-10T12:09:01.055Z,1.27
2019-05-10T12:15:43.738Z,1.75
2019-05-10T12:22:38.307Z,2.83
2019-05-10T12:29:17.284Z,1.57
2019-05-10T12:36:02.355Z,1.50
2019-05-10T12:42:47.447Z,1.42
2019-05-10T12:49:35.998Z,1.52
2019-05-10T12:56:19.290Z,1.52
2019-05-10T13:03:12.654Z,1.70
2019-05-10T13:10:02.117Z,1.67
2019-05-10T13:16:37.530Z,2.00
2019-05-10T13:23:22.399Z,1.50
2019-05-10T13:30:08.190Z,2.20
2019-05-10T13:36:53.067Z,1.50
2019-05-10T13:43:37.931Z,1.77
2019-05-10T13:50:23.238Z,1.80
2019-05-10T13:57:09.675Z,1.90
2019-05-10T14:04:01.203Z,1.60
2019-05-10T14:10:41.844Z,3.15
2019-05-10T14:17:26.795Z,2.40
2019-05-10T14:24:15.270Z,1.67
2019-05-10T14:30:59.283Z,1.73
2019-05-10T14:37:47.698Z,2.20
2019-05-10T14:44:31.101Z,1.80
2019-05-10T14:51:15.994Z,1.80
2019-05-10T14:58:00.876Z,1.72
2019-05-10T15:04:47.063Z,1.87
2019-05-10T15:11:33.247Z,2.03
2019-05-10T15:18:18.224Z,2.20
2019-05-10T15:25:03.462Z,1.60
2019-05-10T15:31:48.429Z,1.37
2019-05-10T15:38:33.490Z,1.50
2019-05-10T15:45:19.603Z,1.60
2019-05-10T15:52:16.885Z,2.08
2019-05-10T15:58:51.684Z,1.90
2019-05-10T16:05:59.879Z,1.87
2019-05-10T16:12:37.925Z,1.83
2019-05-10T16:19:21.819Z,1.30
2019-05-10T16:26:06.839Z,1.63
2019-05-10T16:32:51.703Z,1.37
2019-05-10T16:39:36.635Z,1.45
2019-05-10T16:46:21.571Z,1.40
2019-05-10T16:53:08.171Z,1.70
2019-05-10T16:59:53.144Z,2.10
2019-05-10T17:06:40.404Z,1.53
2019-05-10T17:13:24.691Z,1.90
2019-05-10T17:20:13.915Z,1.55
2019-05-10T17:26:56.687Z,2.02
2019-05-10T17:33:42.567Z,2.00
2019-05-10T17:40:28.269Z,2.10
2019-05-10T17:47:13.135Z,1.80
2019-05-10T17:54:01.328Z,1.73
2019-05-10T18:00:45.217Z,1.73
2019-05-10T18:07:31.089Z,2.22
2019-05-10T18:14:18.069Z,1.93
2019-05-10T18:21:02.647Z,2.60
2019-05-10T18:27:47.810Z,2.62
2019-05-10T18:34:35.156Z,2.47
2019-05-10T18:41:19.300Z,2.75
2019-05-10T18:48:04.791Z,2.30
2019-05-10T18:54:49.716Z,2.03
2019-05-10T19:01:38.641Z,2.10
2019-05-10T19:08:21.172Z,1.90
2019-05-10T19:15:15.378Z,1.77
2019-05-10T19:21:56.897Z,2.20
2019-05-10T19:28:41.925Z,2.07
2019-05-10T19:35:29.980Z,2.37
2019-05-10T19:42:13.645Z,2.27
2019-05-10T19:48:58.513Z,2.10
2019-05-10T19:55:44.080Z,2.93
2019-05-10T20:02:29.214Z,2.40
2019-05-10T20:09:14.249Z,1.87
2019-05-10T20:16:01.398Z,1.90
2019-05-10T20:22:46.101Z,2.27
2019-05-10T20:29:31.047Z,2.27
2019-05-10T20:36:16.061Z,2.40
2019-05-10T20:43:01.029Z,2.20
2019-05-10T20:49:46.068Z,2.33
2019-05-10T20:56:31.008Z,2.60
2019-05-10T21:03:16.110Z,2.23
2019-05-10T21:10:01.119Z,2.43
2019-05-10T21:16:47.205Z,2.73
2019-05-10T21:23:32.145Z,2.87
2019-05-10T21:30:17.423Z,3.00
2019-05-10T21:37:02.371Z,3.20
2019-05-10T21:43:47.324Z,3.63
2019-05-10T21:50:34.671Z,3.90
2019-05-10T21:57:19.600Z,3.13
2019-05-10T22:10:59.413Z,3.80
2019-05-10T22:17:44.376Z,3.10
2019-05-10T22:24:29.253Z,3.73
2019-05-10T22:31:14.344Z,3.60
2019-05-10T22:37:59.553Z,4.00
2019-05-10T22:44:44.460Z,4.20
2019-05-10T22:51:29.389Z,5.10
2019-05-10T22:58:14.596Z,5.35
2019-05-10T23:04:59.466Z,6.47
2019-05-10T23:11:44.428Z,4.90
2019-05-10T23:18:29.435Z,6.73
2019-05-10T23:25:14.828Z,5.10
2019-05-10T23:31:59.767Z,5.73
2019-05-10T23:38:44.793Z,5.43
2019-05-10T23:45:29.652Z,4.97
2019-05-10T23:52:14.657Z,4.37
2019-05-10T23:58:59.689Z,3.70
